createdAt,value
2019-01-31T16:16:22.156Z,6.15
2019-01-31T16:20:23.515Z,7.20
2019-01-31T16:24:24.925Z,5.05
2019-01-31T16:28:26.162Z,7.40
2019-01-31T16:32:27.590Z,5.12
2019-01-31T16:36:29.056Z,6.00
2019-01-31T16:40:30.414Z,5.72
2019-01-31T16:44:32.021Z,7.12
2019-01-31T16:48:35.997Z,5.87
2019-01-31T16:52:37.321Z,8.33
2019-01-31T16:56:38.822Z,6.65
2019-01-31T17:00:40.120Z,5.75
2019-01-31T17:04:41.431Z,6.28
2019-01-31T17:08:42.902Z,7.60
2019-01-31T17:12:44.409Z,5.67
2019-01-31T17:16:45.771Z,6.83
2019-01-31T17:20:47.244Z,7.62
2019-01-31T17:24:48.675Z,10.75
2019-01-31T17:28:50.286Z,9.25
2019-01-31T17:32:52.280Z,8.65
2019-01-31T17:36:53.704Z,13.40
2019-01-31T17:40:55.254Z,9.88
2019-01-31T17:44:56.801Z,11.03
2019-01-31T17:48:58.270Z,13.75
2019-01-31T17:52:59.711Z,14.90
2019-01-31T17:57:01.067Z,11.50
2019-01-31T18:01:02.795Z,13.53
2019-01-31T18:05:07.952Z,11.70
2019-01-31T18:09:09.501Z,14.33
2019-01-31T18:13:10.925Z,14.63
2019-01-31T18:17:12.934Z,9.40
2019-01-31T18:21:14.681Z,11.85
2019-01-31T18:25:16.119Z,11.90
2019-01-31T18:29:18.534Z,12.98
2019-01-31T18:33:19.989Z,12.75
2019-01-31T18:37:21.269Z,12.78
2019-01-31T18:41:22.796Z,9.85
2019-01-31T18:45:30.315Z,12.90
2019-01-31T18:49:31.877Z,12.90
2019-01-31T18:53:33.097Z,16.35
2019-01-31T18:57:34.618Z,16.12
2019-01-31T19:01:36.239Z,13.15
2019-01-31T19:05:37.736Z,12.23
2019-01-31T19:09:39.151Z,11.80
2019-01-31T19:13:40.604Z,10.40
2019-01-31T19:17:42.031Z,9.90
2019-01-31T19:21:43.676Z,11.90
2019-01-31T19:25:47.242Z,11.08
2019-01-31T19:29:48.684Z,10.00
2019-01-31T19:33:51.794Z,9.93
2019-01-31T19:38:01.458Z,12.13
2019-01-31T19:41:57.501Z,11.95
2019-01-31T19:45:58.982Z,12.53
2019-01-31T19:50:00.551Z,12.00
2019-01-31T19:54:02.000Z,11.12
2019-01-31T19:58:03.831Z,10.60
2019-01-31T20:02:05.383Z,12.78
2019-01-31T20:06:06.989Z,10.05
2019-01-31T20:10:15.353Z,11.97
2019-01-31T20:14:16.734Z,11.25
2019-01-31T20:18:18.095Z,9.35
2019-01-31T20:22:19.700Z,12.18
2019-01-31T20:26:21.315Z,16.70
2019-01-31T20:30:24.873Z,9.68
2019-01-31T20:34:26.310Z,14.50
2019-01-31T20:38:27.958Z,11.33
2019-01-31T20:42:29.415Z,10.90
2019-01-31T20:46:39.680Z,11.08
2019-01-31T20:50:36.276Z,11.18
2019-01-31T20:54:37.703Z,9.80
2019-01-31T20:58:39.017Z,10.28
2019-01-31T21:02:40.491Z,10.48
2019-01-31T21:06:42.057Z,9.85
2019-01-31T21:10:43.476Z,9.20
2019-01-31T21:14:44.910Z,10.15
2019-01-31T21:18:46.762Z,11.30
2019-01-31T21:22:48.575Z,12.63
2019-01-31T21:26:50.106Z,10.82
2019-01-31T21:30:51.380Z,13.40
2019-01-31T21:34:52.714Z,11.75
2019-01-31T21:38:54.051Z,11.45
2019-01-31T21:42:55.325Z,13.48
2019-01-31T21:47:03.153Z,10.15
2019-01-31T21:51:00.074Z,10.13
2019-01-31T21:55:01.470Z,9.28
2019-01-31T21:59:03.125Z,9.80
2019-01-31T22:03:05.479Z,9.78
2019-01-31T22:07:06.860Z,8.58
2019-01-31T22:11:07.997Z,8.43
2019-01-31T22:15:13.244Z,7.47
2019-01-31T22:19:14.667Z,11.50
2019-01-31T22:23:16.226Z,7.03
2019-01-31T22:27:17.498Z,8.70
2019-01-31T22:31:18.888Z,8.95
2019-01-31T22:35:20.329Z,7.58
2019-01-31T22:39:21.687Z,8.48
2019-01-31T22:43:23.091Z,8.13
2019-01-31T22:47:26.259Z,8.73
2019-01-31T22:51:27.747Z,10.63
2019-01-31T22:55:29.012Z,8.38
2019-01-31T22:59:30.549Z,8.45
2019-01-31T23:03:31.996Z,7.83
2019-01-31T23:07:33.404Z,8.48
2019-01-31T23:11:34.859Z,6.92
2019-01-31T23:15:36.209Z,7.20
2019-01-31T23:19:37.682Z,6.17
2019-01-31T23:23:38.939Z,7.30
2019-01-31T23:27:40.209Z,8.95
2019-01-31T23:31:41.873Z,7.22
2019-01-31T23:35:43.149Z,8.80
2019-01-31T23:39:44.457Z,9.18
2019-01-31T23:43:45.831Z,6.75
2019-01-31T23:47:48.860Z,11.53
2019-01-31T23:51:50.306Z,8.38
2019-01-31T23:55:51.559Z,9.35
2019-01-31T23:59:53.002Z,6.10
